Aviation Digital Data Service (ADDS)

Output produced by METARs form (1208 UTC 23 August 2017)
found at http://aviationweather.gov/adds/metars/
 
METAR text: KCVC 231155Z AUTO 00000KT 10SM CLR 24/22 A2997 RMK AO2
Conditions at: KCVC (COVINGTON MUNI , GA, US) observed 1155 UTC 23 August 2017
Temperature: 24.0°C (75°F)
Dewpoint: 22.0°C (72°F) [RH = 89%]
Pressure (altimeter): 29.97 inches Hg (1015.0 mb)
Winds: calm
Visibility: 10 or more miles (16+ km)
Ceiling: at least 12,000 feet AGL
Clouds: sky clear below 12,000 feet AGL
Weather: automated observation with no human augmentation;
there may or may not be significant weather present at this time